This is the latest recevied weather packets stored in our database for station/object PY2RMF-10. If no packets are shown the sender has not sent any weather packets the latest 10 day(s).
| Time | Temp. | Humidity | Pressure | Rain* | Wind** | Luminosity | Snow |
|---|---|---|---|---|---|---|---|
| 1777868311 | 16.11° C | 100% | 1006 hPa | - | - | - | - |
| 1777866511 | 16.11° C | 100% | 1006 hPa | - | - | - | - |
| 1777864711 | 16.11° C | 100% | 1006 hPa | - | - | - | - |
| 1777862912 | 16.11° C | 100% | 1007 hPa | - | - | - | - |
| 1777861112 | 16.11° C | 100% | 1007 hPa | - | - | - | - |
| 1777859311 | 16.11° C | 100% | 1007 hPa | - | - | - | - |
| 1777857511 | 16.11° C | 100% | 1007 hPa | - | - | - | - |
| 1777855711 | 16.11° C | 100% | 1007 hPa | - | - | - | - |
| 1777853911 | 16.67° C | 100% | 1007 hPa | - | - | - | - |
| 1777852112 | 16.67° C | 100% | 1007 hPa | - | - | - | - |
| 1777850311 | 16.67° C | 100% | 1007 hPa | - | - | - | - |
| 1777848511 | 16.67° C | 100% | 1006 hPa | - | - | - | - |
| 1777846711 | 17.22° C | 100% | 1006 hPa | - | - | - | - |
| 1777844911 | 17.78° C | 100% | 1006 hPa | - | - | - | - |
| 1777843112 | 18.33° C | 100% | 1006 hPa | - | - | - | - |
| 1777841311 | 18.89° C | 100% | 1006 hPa | - | - | - | - |
| 1777839511 | 20° C | 99% | 1006 hPa | - | - | - | - |
| 1777837711 | 21.11° C | 92% | 1006 hPa | - | - | - | - |
| 1777835914 | 22.22° C | 82% | 1006 hPa | - | - | - | - |
| 1777834112 | 23.33° C | 75% | 1006 hPa | - | - | - | - |
| 1777832311 | 24.44° C | 77% | 1006 hPa | - | - | - | - |
| 1777830511 | 23.33° C | 83% | 1006 hPa | - | - | - | - |
| 1777828711 | 22.78° C | 91% | 1006 hPa | - | - | - | - |
| 1777826911 | 23.33° C | 81% | 1006 hPa | - | - | - | - |
| 1777825111 | 24.44° C | 77% | 1007 hPa | - | - | - | - |
* Rain since midnight (hover to see other rain measurements)
** Current wind speed in m/s (hover to see current wind gust speed)